createdAt,value
2023-01-09T00:01:29.732Z,12.20
2023-01-09T00:03:57.331Z,11.20
2023-01-09T00:06:32.022Z,9.20
2023-01-09T00:09:08.544Z,10.00
2023-01-09T00:11:37.021Z,12.40
2023-01-09T00:14:06.104Z,10.10
2023-01-09T00:16:37.030Z,11.40
2023-01-09T00:19:04.323Z,9.30
2023-01-09T00:21:32.080Z,9.80
2023-01-09T00:24:00.053Z,10.80
2023-01-09T00:26:30.959Z,9.70
2023-01-09T00:28:58.678Z,11.10
2023-01-09T00:31:30.954Z,10.20
2023-01-09T00:33:57.853Z,11.40
2023-01-09T00:36:26.390Z,9.10
2023-01-09T00:38:54.751Z,10.30
2023-01-09T00:41:30.157Z,10.50
2023-01-09T00:44:13.761Z,10.30
2023-01-09T00:46:44.842Z,11.10
2023-01-09T00:49:12.668Z,9.20
2023-01-09T00:51:40.024Z,9.30
2023-01-09T00:54:21.091Z,10.40
2023-01-09T00:56:48.656Z,9.50
2023-01-09T00:59:16.619Z,9.20
2023-01-09T01:01:44.826Z,10.10
2023-01-09T01:04:30.479Z,9.00
2023-01-09T01:07:19.578Z,9.70
2023-01-09T01:09:50.068Z,10.40
2023-01-09T01:12:21.255Z,9.80
2023-01-09T01:14:48.203Z,12.50
2023-01-09T01:17:17.794Z,10.50
2023-01-09T01:19:44.882Z,10.00
2023-01-09T01:22:11.832Z,10.60
2023-01-09T01:24:38.730Z,8.90
2023-01-09T01:27:07.382Z,10.20
2023-01-09T01:29:36.007Z,10.50
2023-01-09T01:32:03.194Z,9.70
2023-01-09T01:34:34.288Z,9.20
2023-01-09T01:37:04.075Z,9.80
2023-01-09T01:39:31.361Z,9.10
2023-01-09T01:41:58.461Z,9.60
2023-01-09T01:45:04.187Z,8.30
2023-01-09T01:47:42.985Z,9.20
2023-01-09T01:50:16.118Z,9.30
2023-01-09T01:52:50.202Z,10.00
2023-01-09T01:55:17.315Z,11.00
2023-01-09T01:57:47.744Z,8.60
2023-01-09T02:00:15.131Z,7.80
2023-01-09T02:02:43.128Z,8.40
2023-01-09T02:05:12.741Z,7.60
2023-01-09T02:07:41.133Z,9.30
2023-01-09T02:10:09.536Z,8.70
2023-01-09T02:12:39.158Z,7.80
2023-01-09T02:15:10.978Z,8.70
2023-01-09T02:18:03.975Z,9.70
2023-01-09T02:20:50.842Z,8.30
2023-01-09T02:23:40.215Z,9.00
2023-01-09T02:26:23.063Z,8.40
2023-01-09T02:29:05.420Z,9.00
2023-01-09T02:31:46.699Z,7.60
2023-01-09T02:34:41.141Z,8.70
2023-01-09T02:37:13.275Z,9.50
2023-01-09T02:40:17.822Z,7.40
2023-01-09T02:42:45.078Z,8.10
2023-01-09T02:45:17.587Z,7.70
2023-01-09T02:47:45.401Z,8.80
2023-01-09T02:50:21.161Z,9.00
2023-01-09T02:53:09.197Z,7.90
2023-01-09T02:55:44.129Z,7.20
2023-01-09T02:58:16.831Z,7.30
2023-01-09T03:03:39.045Z,7.70
2023-01-09T03:06:15.371Z,9.00
2023-01-09T03:08:55.159Z,10.70
2023-01-09T03:11:22.912Z,7.80
2023-01-09T03:13:55.724Z,6.90
2023-01-09T03:16:35.238Z,7.00
2023-01-09T03:19:07.473Z,9.00
2023-01-09T03:21:35.595Z,7.70
2023-01-09T03:24:03.181Z,8.40
2023-01-09T03:26:31.375Z,8.40
2023-01-09T03:29:01.880Z,8.70
2023-01-09T03:31:29.692Z,8.80
2023-01-09T03:33:57.128Z,9.10
2023-01-09T03:36:25.592Z,7.10
2023-01-09T03:38:53.900Z,7.20
2023-01-09T03:41:24.242Z,7.70
2023-01-09T03:43:52.804Z,7.00
2023-01-09T03:46:20.066Z,7.90
2023-01-09T03:48:47.281Z,6.90
2023-01-09T03:51:14.858Z,7.50
2023-01-09T03:53:44.818Z,9.70
2023-01-09T03:56:12.570Z,6.60
2023-01-09T03:58:39.874Z,7.70
2023-01-09T04:01:13.181Z,7.00
2023-01-09T04:03:43.850Z,6.70
2023-01-09T04:06:11.153Z,8.10
2023-01-09T04:16:07.643Z,9.50
2023-01-09T04:18:36.634Z,8.00
2023-01-09T04:21:06.191Z,9.40
2023-01-09T04:23:36.284Z,8.50
2023-01-09T04:26:06.480Z,10.00
2023-01-09T04:28:36.115Z,7.60
2023-01-09T04:31:03.390Z,10.30
2023-01-09T04:33:30.693Z,10.10
2023-01-09T04:35:59.332Z,9.90
2023-01-09T04:38:27.712Z,10.00
2023-01-09T04:40:57.265Z,11.30
2023-01-09T04:43:26.153Z,8.60
2023-01-09T04:45:54.862Z,9.70
2023-01-09T04:48:24.916Z,9.00
2023-01-09T04:50:53.136Z,10.10
2023-01-09T04:53:21.929Z,9.50
2023-01-09T04:55:52.413Z,9.50
2023-01-09T04:58:22.877Z,9.50
2023-01-09T05:00:52.355Z,9.60
2023-01-09T05:03:22.727Z,9.80
2023-01-09T05:05:49.854Z,8.70
2023-01-09T05:08:17.990Z,8.90
2023-01-09T05:10:45.120Z,8.40
2023-01-09T05:13:14.338Z,8.80
2023-01-09T05:15:44.090Z,10.80
2023-01-09T05:18:13.284Z,9.70
2023-01-09T05:20:41.672Z,10.00
2023-01-09T05:23:11.931Z,10.20
2023-01-09T05:25:39.037Z,9.30
2023-01-09T05:28:06.794Z,9.90
2023-01-09T05:30:34.115Z,10.10
2023-01-09T05:33:01.256Z,10.80
2023-01-09T05:35:28.628Z,9.60
2023-01-09T05:37:56.873Z,9.20
2023-01-09T05:40:32.111Z,9.80
2023-01-09T05:43:01.604Z,9.80
2023-01-09T05:45:29.399Z,10.00
2023-01-09T05:47:57.911Z,9.80
2023-01-09T05:50:25.631Z,9.10
2023-01-09T05:52:52.788Z,10.40
2023-01-09T05:55:23.266Z,10.30
2023-01-09T05:57:52.461Z,10.70
2023-01-09T06:00:21.219Z,8.70
2023-01-09T06:03:06.399Z,11.30
2023-01-09T06:05:34.965Z,9.80
2023-01-09T06:08:04.564Z,8.40
2023-01-09T06:10:33.471Z,10.70
2023-01-09T06:13:00.717Z,10.50
2023-01-09T06:15:32.216Z,8.50
2023-01-09T06:18:02.110Z,8.80
2023-01-09T06:20:31.550Z,10.40
2023-01-09T06:23:00.004Z,8.70
2023-01-09T06:25:28.494Z,9.80
2023-01-09T06:28:00.692Z,9.70
2023-01-09T06:30:28.896Z,9.50
2023-01-09T06:32:56.072Z,11.50
2023-01-09T06:35:26.906Z,10.40
2023-01-09T06:37:54.232Z,9.10
2023-01-09T06:40:21.435Z,10.30
2023-01-09T06:42:50.981Z,9.30
2023-01-09T06:45:20.550Z,10.60
2023-01-09T06:47:50.242Z,10.00
2023-01-09T06:50:21.601Z,11.30
2023-01-09T06:52:50.423Z,10.60
2023-01-09T06:55:18.865Z,9.80
2023-01-09T06:57:47.399Z,9.50
2023-01-09T07:00:17.558Z,10.30
2023-01-09T07:02:49.477Z,10.70
2023-01-09T07:05:18.731Z,10.10
2023-01-09T07:08:04.765Z,10.10
2023-01-09T07:10:43.547Z,9.90
2023-01-09T07:13:15.289Z,11.30
2023-01-09T07:15:42.826Z,9.80
2023-01-09T07:18:10.404Z,10.80
2023-01-09T07:20:41.072Z,11.70
2023-01-09T07:23:13.105Z,10.50
2023-01-09T07:25:51.744Z,12.80
2023-01-09T07:28:22.178Z,11.30
2023-01-09T07:30:52.289Z,10.80
2023-01-09T07:33:20.340Z,10.50
2023-01-09T07:35:49.052Z,10.10
2023-01-09T07:38:17.669Z,11.20
2023-01-09T07:40:50.288Z,10.60
2023-01-09T07:43:18.477Z,10.20
2023-01-09T14:03:53.989Z,8.20
2023-01-09T14:06:22.712Z,9.00
2023-01-09T14:09:13.288Z,8.20
2023-01-09T14:11:46.055Z,9.20
2023-01-09T14:14:24.628Z,7.70
2023-01-09T14:16:53.828Z,7.10
2023-01-09T14:19:30.410Z,9.80
2023-01-09T14:22:02.406Z,10.50
2023-01-09T14:24:39.632Z,9.60
2023-01-09T14:27:46.720Z,8.20
2023-01-09T14:30:23.630Z,9.50
2023-01-09T14:33:20.608Z,8.60
2023-01-09T14:36:09.633Z,7.90
2023-01-09T14:38:51.881Z,6.60
2023-01-09T14:42:00.125Z,6.90
2023-01-09T14:44:27.847Z,8.50
2023-01-09T14:46:56.937Z,9.10
2023-01-09T14:49:32.991Z,7.90
2023-01-09T14:52:27.019Z,8.20
2023-01-09T14:55:09.314Z,7.60
2023-01-09T14:57:41.276Z,6.30
2023-01-09T15:00:17.379Z,8.90
2023-01-09T15:02:46.801Z,9.50
2023-01-09T15:05:16.916Z,10.70
2023-01-09T15:07:52.147Z,8.50
2023-01-09T15:10:32.881Z,9.20
2023-01-09T15:13:04.546Z,10.50
2023-01-09T15:15:35.084Z,8.80
2023-01-09T15:18:07.427Z,7.90
2023-01-09T15:20:36.099Z,8.00
2023-01-09T15:23:22.672Z,8.50
2023-01-09T15:25:51.202Z,9.90
2023-01-09T15:28:25.061Z,8.50
2023-01-09T15:31:09.574Z,7.70
2023-01-09T15:33:42.881Z,10.70
2023-01-09T15:36:26.931Z,7.70
2023-01-09T15:41:48.688Z,10.50
2023-01-09T15:44:31.185Z,10.20
2023-01-09T15:47:00.674Z,9.20
2023-01-09T15:49:29.054Z,9.50
2023-01-09T15:51:58.872Z,9.90
2023-01-09T15:54:31.144Z,7.70
2023-01-09T15:57:26.330Z,8.90
2023-01-09T15:59:56.403Z,14.00
2023-01-09T19:54:23.776Z,5.20
2023-01-09T19:56:54.800Z,12.10
2023-01-09T19:59:25.130Z,7.40
2023-01-09T20:01:55.708Z,7.70
2023-01-09T20:04:26.946Z,6.60
2023-01-09T20:06:58.924Z,6.90
2023-01-09T20:09:31.022Z,7.40
2023-01-09T20:12:05.137Z,7.70
2023-01-09T20:14:40.126Z,7.10
2023-01-09T20:17:07.967Z,5.60
2023-01-09T20:19:49.939Z,6.80
2023-01-09T20:22:22.211Z,7.30
2023-01-09T20:24:49.548Z,5.90
2023-01-09T20:27:20.708Z,5.50
2023-01-09T20:29:51.675Z,5.50
2023-01-09T20:32:33.902Z,5.30
2023-01-09T20:35:05.257Z,3.80
2023-01-09T20:37:38.302Z,4.30
2023-01-09T20:40:10.549Z,3.70
2023-01-09T20:42:38.468Z,4.10
2023-01-09T20:45:06.236Z,3.60
2023-01-09T20:47:34.811Z,4.10
2023-01-09T20:50:02.406Z,4.30
2023-01-09T20:52:30.045Z,3.50
2023-01-09T20:54:58.835Z,3.30
2023-01-09T20:57:29.687Z,4.40
2023-01-09T20:59:57.686Z,3.90
2023-01-09T21:02:31.077Z,3.60
2023-01-09T21:05:01.399Z,3.60
2023-01-09T21:07:29.476Z,3.40
2023-01-09T21:09:57.297Z,3.70
2023-01-09T21:12:40.007Z,4.10
2023-01-09T21:15:11.764Z,3.60
2023-01-09T21:17:43.494Z,3.10
2023-01-09T21:20:20.858Z,3.30
2023-01-09T21:22:53.086Z,2.80
2023-01-09T21:25:26.748Z,3.70
2023-01-09T21:28:07.852Z,3.50
2023-01-09T21:30:37.928Z,4.80
2023-01-09T21:33:11.162Z,3.40
2023-01-09T21:36:40.153Z,2.80
2023-01-09T21:39:08.594Z,3.30
